Terminal Aerodrome Forecast
Issued by NWS

Home | Current Version | Previous Version | Text Only | Print | Product List | Glossary On
Versions: 1 2 3 4 5 6 7 8 9 10 11 12 13 14
000
FTUS46 KMTR 041120
TAFSTS
TAF
KSTS 041120Z 0412/0512 00000KT 5SM BR OVC006
     FM041600 VRB02KT P6SM BKN010
     FM041800 19003KT P6SM SKC
     FM042100 18008KT P6SM SKC
     FM050500 16005KT P6SM SKC
     FM050900 VRB03KT P6SM BKN008=

USA.gov is the U.S. government's official web portal to all federal, state and local government web resources and services.